sensor_id;sensor_type;location;lat;lon;timestamp;P1;durP1;ratioP1;P2;durP2;ratioP2
9270;SDS011;4673;53.458;9.940;2022-10-16T00:00:18;3.63;;;3.63;;
9270;SDS011;4673;53.458;9.940;2022-10-16T00:02:43;3.63;;;3.63;;
9270;SDS011;4673;53.458;9.940;2022-10-16T00:05:09;3.70;;;3.70;;
9270;SDS011;4673;53.458;9.940;2022-10-16T00:07:35;3.53;;;3.53;;
9270;SDS011;4673;53.458;9.940;2022-10-16T00:10:00;2.97;;;2.97;;
9270;SDS011;4673;53.458;9.940;2022-10-16T00:12:26;2.73;;;2.73;;
9270;SDS011;4673;53.458;9.940;2022-10-16T00:14:52;2.57;;;2.57;;
9270;SDS011;4673;53.458;9.940;2022-10-16T00:17:18;3.10;;;3.10;;
9270;SDS011;4673;53.458;9.940;2022-10-16T00:19:43;2.70;;;2.70;;
9270;SDS011;4673;53.458;9.940;2022-10-16T00:22:09;2.53;;;2.53;;
9270;SDS011;4673;53.458;9.940;2022-10-16T00:24:34;2.80;;;2.80;;
9270;SDS011;4673;53.458;9.940;2022-10-16T00:27:01;2.37;;;2.37;;
9270;SDS011;4673;53.458;9.940;2022-10-16T00:29:27;2.40;;;2.40;;
9270;SDS011;4673;53.458;9.940;2022-10-16T00:31:52;2.10;;;2.10;;
9270;SDS011;4673;53.458;9.940;2022-10-16T00:34:18;1.70;;;1.70;;
9270;SDS011;4673;53.458;9.940;2022-10-16T00:36:43;2.30;;;2.30;;
9270;SDS011;4673;53.458;9.940;2022-10-16T00:39:09;2.23;;;2.23;;
9270;SDS011;4673;53.458;9.940;2022-10-16T00:41:35;1.90;;;1.90;;
9270;SDS011;4673;53.458;9.940;2022-10-16T00:44:02;2.00;;;2.00;;
9270;SDS011;4673;53.458;9.940;2022-10-16T00:46:47;2.47;;;2.47;;
9270;SDS011;4673;53.458;9.940;2022-10-16T00:49:16;2.20;;;2.20;;
9270;SDS011;4673;53.458;9.940;2022-10-16T00:51:50;2.00;;;2.00;;
9270;SDS011;4673;53.458;9.940;2022-10-16T00:54:22;2.17;;;2.17;;
9270;SDS011;4673;53.458;9.940;2022-10-16T00:56:51;2.17;;;2.17;;
9270;SDS011;4673;53.458;9.940;2022-10-16T00:59:20;1.90;;;1.90;;
9270;SDS011;4673;53.458;9.940;2022-10-16T01:01:51;2.23;;;2.23;;
9270;SDS011;4673;53.458;9.940;2022-10-16T01:04:17;2.73;;;2.73;;
9270;SDS011;4673;53.458;9.940;2022-10-16T01:09:23;2.73;;;2.73;;
9270;SDS011;4673;53.458;9.940;2022-10-16T01:12:09;2.23;;;2.23;;
9270;SDS011;4673;53.458;9.940;2022-10-16T01:14:47;2.03;;;2.03;;
9270;SDS011;4673;53.458;9.940;2022-10-16T01:17:31;2.83;;;2.83;;
9270;SDS011;4673;53.458;9.940;2022-10-16T01:22:39;1.93;;;1.93;;
9270;SDS011;4673;53.458;9.940;2022-10-16T01:26:20;1.70;;;1.70;;
9270;SDS011;4673;53.458;9.940;2022-10-16T01:28:28;1.97;;;1.97;;
9270;SDS011;4673;53.458;9.940;2022-10-16T01:31:02;2.33;;;2.33;;
9270;SDS011;4673;53.458;9.940;2022-10-16T01:33:29;2.23;;;2.23;;
9270;SDS011;4673;53.458;9.940;2022-10-16T01:36:23;1.87;;;1.87;;
9270;SDS011;4673;53.458;9.940;2022-10-16T01:38:54;2.07;;;2.07;;
9270;SDS011;4673;53.458;9.940;2022-10-16T01:41:27;1.67;;;1.67;;
9270;SDS011;4673;53.458;9.940;2022-10-16T01:44:32;1.83;;;1.83;;
9270;SDS011;4673;53.458;9.940;2022-10-16T01:46:53;1.73;;;1.73;;
9270;SDS011;4673;53.458;9.940;2022-10-16T01:49:20;2.00;;;2.00;;
9270;SDS011;4673;53.458;9.940;2022-10-16T01:51:49;1.80;;;1.80;;
9270;SDS011;4673;53.458;9.940;2022-10-16T01:54:19;1.97;;;1.97;;
9270;SDS011;4673;53.458;9.940;2022-10-16T01:56:48;1.90;;;1.90;;
9270;SDS011;4673;53.458;9.940;2022-10-16T01:59:16;2.27;;;2.27;;
9270;SDS011;4673;53.458;9.940;2022-10-16T02:01:49;2.10;;;2.10;;
9270;SDS011;4673;53.458;9.940;2022-10-16T02:04:24;2.30;;;2.30;;
9270;SDS011;4673;53.458;9.940;2022-10-16T02:06:59;2.07;;;2.07;;
9270;SDS011;4673;53.458;9.940;2022-10-16T02:09:25;2.10;;;2.10;;
9270;SDS011;4673;53.458;9.940;2022-10-16T02:11:52;2.03;;;2.03;;
9270;SDS011;4673;53.458;9.940;2022-10-16T02:14:21;2.60;;;2.60;;
9270;SDS011;4673;53.458;9.940;2022-10-16T02:16:49;1.80;;;1.80;;
9270;SDS011;4673;53.458;9.940;2022-10-16T02:19:16;1.60;;;1.60;;
9270;SDS011;4673;53.458;9.940;2022-10-16T02:27:19;1.70;;;1.70;;
9270;SDS011;4673;53.458;9.940;2022-10-16T02:30:00;1.90;;;1.90;;
9270;SDS011;4673;53.458;9.940;2022-10-16T02:32:33;1.80;;;1.80;;
9270;SDS011;4673;53.458;9.940;2022-10-16T02:35:01;1.47;;;1.47;;
9270;SDS011;4673;53.458;9.940;2022-10-16T02:37:27;1.60;;;1.60;;
9270;SDS011;4673;53.458;9.940;2022-10-16T02:39:53;1.33;;;1.33;;
9270;SDS011;4673;53.458;9.940;2022-10-16T02:42:20;1.73;;;1.73;;
9270;SDS011;4673;53.458;9.940;2022-10-16T02:44:52;1.70;;;1.70;;
9270;SDS011;4673;53.458;9.940;2022-10-16T02:47:17;1.40;;;1.40;;
9270;SDS011;4673;53.458;9.940;2022-10-16T02:49:43;1.50;;;1.50;;
9270;SDS011;4673;53.458;9.940;2022-10-16T02:52:09;1.83;;;1.83;;
9270;SDS011;4673;53.458;9.940;2022-10-16T02:54:34;1.60;;;1.60;;
9270;SDS011;4673;53.458;9.940;2022-10-16T02:57:00;1.50;;;1.50;;
9270;SDS011;4673;53.458;9.940;2022-10-16T02:59:25;1.90;;;1.90;;
9270;SDS011;4673;53.458;9.940;2022-10-16T03:01:51;1.53;;;1.53;;
9270;SDS011;4673;53.458;9.940;2022-10-16T03:04:16;1.80;;;1.80;;
9270;SDS011;4673;53.458;9.940;2022-10-16T03:06:42;1.90;;;1.90;;
9270;SDS011;4673;53.458;9.940;2022-10-16T03:09:08;2.30;;;2.30;;
9270;SDS011;4673;53.458;9.940;2022-10-16T03:11:33;1.63;;;1.63;;
9270;SDS011;4673;53.458;9.940;2022-10-16T03:13:59;2.10;;;2.10;;
9270;SDS011;4673;53.458;9.940;2022-10-16T03:16:25;1.70;;;1.70;;
9270;SDS011;4673;53.458;9.940;2022-10-16T03:18:50;2.37;;;2.37;;
9270;SDS011;4673;53.458;9.940;2022-10-16T03:21:16;1.80;;;1.80;;
9270;SDS011;4673;53.458;9.940;2022-10-16T03:23:42;2.10;;;2.10;;
9270;SDS011;4673;53.458;9.940;2022-10-16T03:26:07;1.50;;;1.50;;
9270;SDS011;4673;53.458;9.940;2022-10-16T03:28:33;2.30;;;2.30;;
9270;SDS011;4673;53.458;9.940;2022-10-16T03:30:58;2.10;;;2.10;;
9270;SDS011;4673;53.458;9.940;2022-10-16T03:33:24;2.27;;;2.27;;
9270;SDS011;4673;53.458;9.940;2022-10-16T03:35:53;1.80;;;1.80;;
9270;SDS011;4673;53.458;9.940;2022-10-16T03:38:19;2.00;;;2.00;;
9270;SDS011;4673;53.458;9.940;2022-10-16T03:40:45;2.60;;;2.60;;
9270;SDS011;4673;53.458;9.940;2022-10-16T03:43:11;2.33;;;2.33;;
9270;SDS011;4673;53.458;9.940;2022-10-16T03:45:37;1.53;;;1.53;;
9270;SDS011;4673;53.458;9.940;2022-10-16T03:48:02;2.03;;;2.03;;
9270;SDS011;4673;53.458;9.940;2022-10-16T03:50:28;2.23;;;2.23;;
9270;SDS011;4673;53.458;9.940;2022-10-16T03:52:54;1.90;;;1.90;;
9270;SDS011;4673;53.458;9.940;2022-10-16T03:55:20;2.37;;;2.37;;
9270;SDS011;4673;53.458;9.940;2022-10-16T03:57:46;2.00;;;2.00;;
9270;SDS011;4673;53.458;9.940;2022-10-16T04:00:11;2.00;;;2.00;;
9270;SDS011;4673;53.458;9.940;2022-10-16T04:02:38;1.63;;;1.63;;
9270;SDS011;4673;53.458;9.940;2022-10-16T04:05:03;1.80;;;1.80;;
9270;SDS011;4673;53.458;9.940;2022-10-16T04:07:29;1.83;;;1.83;;
9270;SDS011;4673;53.458;9.940;2022-10-16T04:09:55;2.10;;;2.10;;
9270;SDS011;4673;53.458;9.940;2022-10-16T04:12:22;1.50;;;1.50;;
9270;SDS011;4673;53.458;9.940;2022-10-16T04:14:47;1.70;;;1.70;;
9270;SDS011;4673;53.458;9.940;2022-10-16T04:17:13;1.63;;;1.63;;
9270;SDS011;4673;53.458;9.940;2022-10-16T04:19:38;2.00;;;2.00;;
9270;SDS011;4673;53.458;9.940;2022-10-16T04:22:04;1.90;;;1.90;;
9270;SDS011;4673;53.458;9.940;2022-10-16T04:24:30;1.60;;;1.60;;
9270;SDS011;4673;53.458;9.940;2022-10-16T04:26:55;1.87;;;1.87;;
9270;SDS011;4673;53.458;9.940;2022-10-16T04:29:21;2.03;;;2.03;;
9270;SDS011;4673;53.458;9.940;2022-10-16T04:31:46;1.90;;;1.90;;
9270;SDS011;4673;53.458;9.940;2022-10-16T04:34:12;2.30;;;2.30;;
9270;SDS011;4673;53.458;9.940;2022-10-16T04:36:38;2.13;;;2.13;;
9270;SDS011;4673;53.458;9.940;2022-10-16T04:39:03;2.27;;;2.27;;
9270;SDS011;4673;53.458;9.940;2022-10-16T04:41:29;2.30;;;2.30;;
9270;SDS011;4673;53.458;9.940;2022-10-16T04:43:54;2.60;;;2.60;;
9270;SDS011;4673;53.458;9.940;2022-10-16T04:46:20;2.60;;;2.60;;
9270;SDS011;4673;53.458;9.940;2022-10-16T04:48:46;2.63;;;2.63;;
9270;SDS011;4673;53.458;9.940;2022-10-16T04:51:11;2.90;;;2.90;;
9270;SDS011;4673;53.458;9.940;2022-10-16T04:53:37;2.90;;;2.90;;
9270;SDS011;4673;53.458;9.940;2022-10-16T04:56:03;3.03;;;3.03;;
9270;SDS011;4673;53.458;9.940;2022-10-16T04:58:29;2.83;;;2.83;;
9270;SDS011;4673;53.458;9.940;2022-10-16T05:00:54;2.67;;;2.67;;
9270;SDS011;4673;53.458;9.940;2022-10-16T05:03:20;3.00;;;3.00;;
9270;SDS011;4673;53.458;9.940;2022-10-16T05:05:46;2.83;;;2.83;;
9270;SDS011;4673;53.458;9.940;2022-10-16T05:08:12;2.97;;;2.97;;
9270;SDS011;4673;53.458;9.940;2022-10-16T05:10:40;3.33;;;3.33;;
9270;SDS011;4673;53.458;9.940;2022-10-16T05:13:07;2.63;;;2.63;;
9270;SDS011;4673;53.458;9.940;2022-10-16T05:15:32;2.97;;;2.97;;
9270;SDS011;4673;53.458;9.940;2022-10-16T05:17:58;3.50;;;3.50;;
9270;SDS011;4673;53.458;9.940;2022-10-16T05:20:24;3.30;;;3.30;;
9270;SDS011;4673;53.458;9.940;2022-10-16T05:22:49;2.93;;;2.93;;
9270;SDS011;4673;53.458;9.940;2022-10-16T05:25:15;2.40;;;2.40;;
9270;SDS011;4673;53.458;9.940;2022-10-16T05:27:40;3.83;;;3.83;;
9270;SDS011;4673;53.458;9.940;2022-10-16T05:30:06;3.50;;;3.50;;
9270;SDS011;4673;53.458;9.940;2022-10-16T05:32:32;2.60;;;2.60;;
9270;SDS011;4673;53.458;9.940;2022-10-16T05:34:58;2.60;;;2.60;;
9270;SDS011;4673;53.458;9.940;2022-10-16T05:37:25;3.50;;;3.50;;
9270;SDS011;4673;53.458;9.940;2022-10-16T05:39:52;2.80;;;2.80;;
9270;SDS011;4673;53.458;9.940;2022-10-16T05:42:18;2.67;;;2.67;;
9270;SDS011;4673;53.458;9.940;2022-10-16T05:44:43;3.10;;;3.10;;
9270;SDS011;4673;53.458;9.940;2022-10-16T05:47:09;2.80;;;2.80;;
9270;SDS011;4673;53.458;9.940;2022-10-16T05:49:37;2.60;;;2.60;;
9270;SDS011;4673;53.458;9.940;2022-10-16T05:52:02;3.37;;;3.37;;
9270;SDS011;4673;53.458;9.940;2022-10-16T05:54:28;2.50;;;2.50;;
9270;SDS011;4673;53.458;9.940;2022-10-16T05:56:54;3.23;;;3.23;;
9270;SDS011;4673;53.458;9.940;2022-10-16T05:59:19;3.37;;;3.37;;
9270;SDS011;4673;53.458;9.940;2022-10-16T06:01:45;2.80;;;2.80;;
9270;SDS011;4673;53.458;9.940;2022-10-16T06:04:10;2.77;;;2.77;;
9270;SDS011;4673;53.458;9.940;2022-10-16T06:06:36;3.07;;;3.07;;
9270;SDS011;4673;53.458;9.940;2022-10-16T06:09:02;2.90;;;2.90;;
9270;SDS011;4673;53.458;9.940;2022-10-16T06:11:29;3.00;;;3.00;;
9270;SDS011;4673;53.458;9.940;2022-10-16T06:13:57;3.20;;;3.20;;
9270;SDS011;4673;53.458;9.940;2022-10-16T06:16:26;3.03;;;3.03;;
9270;SDS011;4673;53.458;9.940;2022-10-16T06:18:52;2.57;;;2.57;;
9270;SDS011;4673;53.458;9.940;2022-10-16T06:21:21;3.47;;;3.47;;
9270;SDS011;4673;53.458;9.940;2022-10-16T06:23:49;2.43;;;2.43;;
9270;SDS011;4673;53.458;9.940;2022-10-16T06:26:16;2.73;;;2.73;;
9270;SDS011;4673;53.458;9.940;2022-10-16T06:28:43;3.30;;;3.30;;
9270;SDS011;4673;53.458;9.940;2022-10-16T06:31:10;3.07;;;3.07;;
9270;SDS011;4673;53.458;9.940;2022-10-16T06:33:36;3.13;;;3.13;;
9270;SDS011;4673;53.458;9.940;2022-10-16T06:36:06;4.00;;;4.00;;
9270;SDS011;4673;53.458;9.940;2022-10-16T06:38:34;3.10;;;3.10;;
9270;SDS011;4673;53.458;9.940;2022-10-16T06:41:00;3.77;;;3.77;;
9270;SDS011;4673;53.458;9.940;2022-10-16T06:43:28;3.60;;;3.60;;
9270;SDS011;4673;53.458;9.940;2022-10-16T06:45:57;3.67;;;3.67;;
9270;SDS011;4673;53.458;9.940;2022-10-16T06:48:24;3.60;;;3.60;;
9270;SDS011;4673;53.458;9.940;2022-10-16T06:51:00;4.10;;;4.10;;
9270;SDS011;4673;53.458;9.940;2022-10-16T06:53:31;4.50;;;4.50;;
9270;SDS011;4673;53.458;9.940;2022-10-16T06:56:09;3.77;;;3.77;;
9270;SDS011;4673;53.458;9.940;2022-10-16T06:58:36;4.37;;;4.37;;
9270;SDS011;4673;53.458;9.940;2022-10-16T07:01:02;4.20;;;4.20;;
9270;SDS011;4673;53.458;9.940;2022-10-16T07:03:28;3.43;;;3.43;;
9270;SDS011;4673;53.458;9.940;2022-10-16T07:05:54;3.90;;;3.90;;
9270;SDS011;4673;53.458;9.940;2022-10-16T07:08:19;4.57;;;4.57;;
9270;SDS011;4673;53.458;9.940;2022-10-16T07:10:45;4.53;;;4.53;;
9270;SDS011;4673;53.458;9.940;2022-10-16T07:13:10;5.33;;;5.33;;
9270;SDS011;4673;53.458;9.940;2022-10-16T07:15:39;3.70;;;3.70;;
9270;SDS011;4673;53.458;9.940;2022-10-16T07:18:05;3.20;;;3.20;;
9270;SDS011;4673;53.458;9.940;2022-10-16T07:20:31;3.63;;;3.63;;
9270;SDS011;4673;53.458;9.940;2022-10-16T07:22:57;2.90;;;2.90;;
9270;SDS011;4673;53.458;9.940;2022-10-16T07:25:22;3.50;;;3.50;;
9270;SDS011;4673;53.458;9.940;2022-10-16T07:27:48;3.20;;;3.20;;
9270;SDS011;4673;53.458;9.940;2022-10-16T07:30:13;2.80;;;2.80;;
9270;SDS011;4673;53.458;9.940;2022-10-16T07:32:39;3.00;;;3.00;;
9270;SDS011;4673;53.458;9.940;2022-10-16T07:35:05;3.30;;;3.30;;
9270;SDS011;4673;53.458;9.940;2022-10-16T07:37:31;3.20;;;3.20;;
9270;SDS011;4673;53.458;9.940;2022-10-16T07:39:56;2.97;;;2.97;;
9270;SDS011;4673;53.458;9.940;2022-10-16T07:42:22;2.73;;;2.73;;
9270;SDS011;4673;53.458;9.940;2022-10-16T07:44:48;3.23;;;3.23;;
9270;SDS011;4673;53.458;9.940;2022-10-16T07:47:13;3.80;;;3.80;;
9270;SDS011;4673;53.458;9.940;2022-10-16T07:49:39;3.67;;;3.67;;
9270;SDS011;4673;53.458;9.940;2022-10-16T07:52:04;3.10;;;3.10;;
9270;SDS011;4673;53.458;9.940;2022-10-16T07:54:30;5.53;;;5.53;;
9270;SDS011;4673;53.458;9.940;2022-10-16T07:56:55;3.45;;;3.45;;
9270;SDS011;4673;53.458;9.940;2022-10-16T07:59:21;3.15;;;3.15;;
9270;SDS011;4673;53.458;9.940;2022-10-16T08:01:48;3.92;;;3.92;;
9270;SDS011;4673;53.458;9.940;2022-10-16T08:04:14;3.35;;;3.35;;
9270;SDS011;4673;53.458;9.940;2022-10-16T08:06:40;2.47;;;2.47;;
9270;SDS011;4673;53.458;9.940;2022-10-16T08:09:06;2.50;;;2.50;;
9270;SDS011;4673;53.458;9.940;2022-10-16T08:11:33;2.63;;;2.63;;
9270;SDS011;4673;53.458;9.940;2022-10-16T08:13:58;2.80;;;2.80;;
9270;SDS011;4673;53.458;9.940;2022-10-16T08:16:24;2.47;;;2.47;;
9270;SDS011;4673;53.458;9.940;2022-10-16T08:18:50;2.13;;;2.13;;
9270;SDS011;4673;53.458;9.940;2022-10-16T08:21:17;1.90;;;1.90;;
9270;SDS011;4673;53.458;9.940;2022-10-16T08:23:44;2.05;;;2.05;;
9270;SDS011;4673;53.458;9.940;2022-10-16T08:26:10;2.08;;;2.08;;
9270;SDS011;4673;53.458;9.940;2022-10-16T08:28:36;2.28;;;2.28;;
9270;SDS011;4673;53.458;9.940;2022-10-16T08:31:10;2.03;;;2.03;;
9270;SDS011;4673;53.458;9.940;2022-10-16T08:33:38;2.33;;;2.33;;
9270;SDS011;4673;53.458;9.940;2022-10-16T08:36:05;2.38;;;2.38;;
9270;SDS011;4673;53.458;9.940;2022-10-16T08:38:31;2.15;;;2.15;;
9270;SDS011;4673;53.458;9.940;2022-10-16T08:41:08;2.35;;;2.35;;
9270;SDS011;4673;53.458;9.940;2022-10-16T08:44:01;2.00;;;2.00;;
9270;SDS011;4673;53.458;9.940;2022-10-16T08:47:02;2.65;;;2.65;;
9270;SDS011;4673;53.458;9.940;2022-10-16T08:49:46;2.80;;;2.80;;
9270;SDS011;4673;53.458;9.940;2022-10-16T08:52:21;2.58;;;2.58;;
9270;SDS011;4673;53.458;9.940;2022-10-16T08:54:47;1.50;;;1.50;;
9270;SDS011;4673;53.458;9.940;2022-10-16T08:57:21;2.00;;;2.00;;
9270;SDS011;4673;53.458;9.940;2022-10-16T08:59:48;2.15;;;2.15;;
9270;SDS011;4673;53.458;9.940;2022-10-16T09:02:21;2.05;;;2.05;;
9270;SDS011;4673;53.458;9.940;2022-10-16T09:08:00;1.75;;;1.75;;
9270;SDS011;4673;53.458;9.940;2022-10-16T09:13:12;1.42;;;1.42;;
9270;SDS011;4673;53.458;9.940;2022-10-16T09:18:26;1.38;;;1.38;;
9270;SDS011;4673;53.458;9.940;2022-10-16T09:21:14;1.30;;;1.30;;
9270;SDS011;4673;53.458;9.940;2022-10-16T09:23:44;1.35;;;1.35;;
9270;SDS011;4673;53.458;9.940;2022-10-16T09:26:11;1.90;;;1.90;;
9270;SDS011;4673;53.458;9.940;2022-10-16T09:28:38;1.45;;;1.45;;
9270;SDS011;4673;53.458;9.940;2022-10-16T09:31:04;1.20;;;1.20;;
9270;SDS011;4673;53.458;9.940;2022-10-16T09:33:33;1.30;;;1.30;;
9270;SDS011;4673;53.458;9.940;2022-10-16T09:36:02;1.83;;;1.83;;
9270;SDS011;4673;53.458;9.940;2022-10-16T09:38:31;1.42;;;1.42;;
9270;SDS011;4673;53.458;9.940;2022-10-16T09:40:59;1.65;;;1.65;;
9270;SDS011;4673;53.458;9.940;2022-10-16T09:43:35;2.03;;;2.03;;
9270;SDS011;4673;53.458;9.940;2022-10-16T09:46:20;1.58;;;1.58;;
9270;SDS011;4673;53.458;9.940;2022-10-16T09:48:53;1.48;;;1.48;;
9270;SDS011;4673;53.458;9.940;2022-10-16T09:51:31;1.48;;;1.48;;
9270;SDS011;4673;53.458;9.940;2022-10-16T09:54:00;1.63;;;1.63;;
9270;SDS011;4673;53.458;9.940;2022-10-16T09:56:37;1.60;;;1.60;;
9270;SDS011;4673;53.458;9.940;2022-10-16T09:59:13;1.55;;;1.55;;
9270;SDS011;4673;53.458;9.940;2022-10-16T10:01:41;1.20;;;1.20;;
9270;SDS011;4673;53.458;9.940;2022-10-16T10:04:10;1.00;;;1.00;;
9270;SDS011;4673;53.458;9.940;2022-10-16T10:06:37;1.40;;;1.40;;
9270;SDS011;4673;53.458;9.940;2022-10-16T10:11:50;1.65;;;1.65;;
9270;SDS011;4673;53.458;9.940;2022-10-16T10:14:38;1.30;;;1.30;;
9270;SDS011;4673;53.458;9.940;2022-10-16T10:17:13;1.75;;;1.75;;
9270;SDS011;4673;53.458;9.940;2022-10-16T10:22:22;1.20;;;1.20;;
9270;SDS011;4673;53.458;9.940;2022-10-16T10:38:51;1.30;;;1.30;;
9270;SDS011;4673;53.458;9.940;2022-10-16T10:41:43;0.95;;;0.95;;
9270;SDS011;4673;53.458;9.940;2022-10-16T10:44:48;2.10;;;2.10;;
9270;SDS011;4673;53.458;9.940;2022-10-16T10:53:04;1.15;;;1.15;;
9270;SDS011;4673;53.458;9.940;2022-10-16T11:01:14;1.10;;;1.10;;
9270;SDS011;4673;53.458;9.940;2022-10-16T11:06:28;1.73;;;1.73;;
9270;SDS011;4673;53.458;9.940;2022-10-16T11:12:03;1.38;;;1.38;;
9270;SDS011;4673;53.458;9.940;2022-10-16T11:14:42;1.23;;;1.23;;
9270;SDS011;4673;53.458;9.940;2022-10-16T11:19:51;1.25;;;1.25;;
9270;SDS011;4673;53.458;9.940;2022-10-16T11:25:11;1.83;;;1.83;;
9270;SDS011;4673;53.458;9.940;2022-10-16T11:27:45;1.25;;;1.25;;
9270;SDS011;4673;53.458;9.940;2022-10-16T11:33:49;1.13;;;1.13;;
9270;SDS011;4673;53.458;9.940;2022-10-16T11:35:44;1.30;;;1.30;;
9270;SDS011;4673;53.458;9.940;2022-10-16T11:40:52;0.90;;;0.90;;
9270;SDS011;4673;53.458;9.940;2022-10-16T11:43:27;1.13;;;1.13;;
9270;SDS011;4673;53.458;9.940;2022-10-16T11:46:02;0.90;;;0.90;;
9270;SDS011;4673;53.458;9.940;2022-10-16T11:48:57;1.05;;;1.05;;
9270;SDS011;4673;53.458;9.940;2022-10-16T11:51:33;1.02;;;1.02;;
9270;SDS011;4673;53.458;9.940;2022-10-16T11:57:01;1.38;;;1.38;;
9270;SDS011;4673;53.458;9.940;2022-10-16T11:59:46;0.90;;;0.90;;
9270;SDS011;4673;53.458;9.940;2022-10-16T12:02:28;3.80;;;3.80;;
9270;SDS011;4673;53.458;9.940;2022-10-16T12:05:15;1.42;;;1.42;;
9270;SDS011;4673;53.458;9.940;2022-10-16T12:07:52;1.20;;;1.20;;
9270;SDS011;4673;53.458;9.940;2022-10-16T12:10:25;1.42;;;1.42;;
9270;SDS011;4673;53.458;9.940;2022-10-16T12:12:53;1.42;;;1.42;;
9270;SDS011;4673;53.458;9.940;2022-10-16T12:15:23;1.30;;;1.30;;
9270;SDS011;4673;53.458;9.940;2022-10-16T12:17:51;1.02;;;1.02;;
9270;SDS011;4673;53.458;9.940;2022-10-16T12:22:52;0.80;;;0.80;;
9270;SDS011;4673;53.458;9.940;2022-10-16T12:25:24;1.13;;;1.13;;
9270;SDS011;4673;53.458;9.940;2022-10-16T12:27:58;0.93;;;0.93;;
9270;SDS011;4673;53.458;9.940;2022-10-16T12:30:26;1.00;;;1.00;;
9270;SDS011;4673;53.458;9.940;2022-10-16T12:32:53;1.23;;;1.23;;
9270;SDS011;4673;53.458;9.940;2022-10-16T12:35:22;0.95;;;0.95;;
9270;SDS011;4673;53.458;9.940;2022-10-16T12:37:51;1.05;;;1.05;;
9270;SDS011;4673;53.458;9.940;2022-10-16T12:40:28;1.25;;;1.25;;
9270;SDS011;4673;53.458;9.940;2022-10-16T12:42:56;1.30;;;1.30;;
9270;SDS011;4673;53.458;9.940;2022-10-16T12:47:52;1.00;;;1.00;;
9270;SDS011;4673;53.458;9.940;2022-10-16T12:50:38;1.25;;;1.25;;
9270;SDS011;4673;53.458;9.940;2022-10-16T12:53:19;1.52;;;1.52;;
9270;SDS011;4673;53.458;9.940;2022-10-16T12:55:52;1.02;;;1.02;;
9270;SDS011;4673;53.458;9.940;2022-10-16T12:58:53;1.00;;;1.00;;
9270;SDS011;4673;53.458;9.940;2022-10-16T13:10:02;1.63;;;1.63;;
9270;SDS011;4673;53.458;9.940;2022-10-16T13:12:51;1.00;;;1.00;;
9270;SDS011;4673;53.458;9.940;2022-10-16T13:18:03;1.42;;;1.42;;
9270;SDS011;4673;53.458;9.940;2022-10-16T13:28:51;0.98;;;0.98;;
9270;SDS011;4673;53.458;9.940;2022-10-16T13:31:21;1.45;;;1.45;;
9270;SDS011;4673;53.458;9.940;2022-10-16T13:33:52;1.08;;;1.08;;
9270;SDS011;4673;53.458;9.940;2022-10-16T13:36:22;1.23;;;1.23;;
9270;SDS011;4673;53.458;9.940;2022-10-16T13:42:25;1.70;;;1.70;;
9270;SDS011;4673;53.458;9.940;2022-10-16T13:44:52;1.33;;;1.33;;
9270;SDS011;4673;53.458;9.940;2022-10-16T13:47:28;1.20;;;1.20;;
9270;SDS011;4673;53.458;9.940;2022-10-16T13:50:05;1.05;;;1.05;;
9270;SDS011;4673;53.458;9.940;2022-10-16T13:52:36;2.90;;;2.90;;
9270;SDS011;4673;53.458;9.940;2022-10-16T13:55:03;1.73;;;1.73;;
9270;SDS011;4673;53.458;9.940;2022-10-16T13:57:29;1.05;;;1.05;;
9270;SDS011;4673;53.458;9.940;2022-10-16T13:59:55;1.42;;;1.42;;
9270;SDS011;4673;53.458;9.940;2022-10-16T14:02:29;1.30;;;1.30;;
9270;SDS011;4673;53.458;9.940;2022-10-16T14:04:59;1.10;;;1.10;;
9270;SDS011;4673;53.458;9.940;2022-10-16T14:07:28;1.25;;;1.25;;
9270;SDS011;4673;53.458;9.940;2022-10-16T14:09:56;0.93;;;0.93;;
9270;SDS011;4673;53.458;9.940;2022-10-16T14:12:28;0.90;;;0.90;;
9270;SDS011;4673;53.458;9.940;2022-10-16T14:14:54;1.15;;;1.15;;
9270;SDS011;4673;53.458;9.940;2022-10-16T14:19:53;1.10;;;1.10;;
9270;SDS011;4673;53.458;9.940;2022-10-16T14:22:24;1.08;;;1.08;;
9270;SDS011;4673;53.458;9.940;2022-10-16T14:25:47;1.27;;;1.27;;
9270;SDS011;4673;53.458;9.940;2022-10-16T14:30:27;2.35;;;2.35;;
9270;SDS011;4673;53.458;9.940;2022-10-16T14:33:00;1.20;;;1.20;;
9270;SDS011;4673;53.458;9.940;2022-10-16T14:37:54;1.15;;;1.15;;
9270;SDS011;4673;53.458;9.940;2022-10-16T14:40:24;1.30;;;1.30;;
9270;SDS011;4673;53.458;9.940;2022-10-16T14:42:52;1.10;;;1.10;;
9270;SDS011;4673;53.458;9.940;2022-10-16T14:45:19;1.90;;;1.90;;
9270;SDS011;4673;53.458;9.940;2022-10-16T14:47:54;1.27;;;1.27;;
9270;SDS011;4673;53.458;9.940;2022-10-16T14:50:25;1.15;;;1.15;;
9270;SDS011;4673;53.458;9.940;2022-10-16T14:52:51;1.10;;;1.10;;
9270;SDS011;4673;53.458;9.940;2022-10-16T14:55:16;1.52;;;1.52;;
9270;SDS011;4673;53.458;9.940;2022-10-16T14:57:43;1.58;;;1.58;;
9270;SDS011;4673;53.458;9.940;2022-10-16T15:00:17;1.00;;;1.00;;
9270;SDS011;4673;53.458;9.940;2022-10-16T15:02:45;1.00;;;1.00;;
9270;SDS011;4673;53.458;9.940;2022-10-16T15:07:47;1.05;;;1.05;;
9270;SDS011;4673;53.458;9.940;2022-10-16T15:10:14;1.30;;;1.30;;
9270;SDS011;4673;53.458;9.940;2022-10-16T15:12:41;1.92;;;1.92;;
9270;SDS011;4673;53.458;9.940;2022-10-16T15:17:51;1.55;;;1.55;;
9270;SDS011;4673;53.458;9.940;2022-10-16T15:20:20;1.27;;;1.27;;
9270;SDS011;4673;53.458;9.940;2022-10-16T15:22:46;2.13;;;2.13;;
9270;SDS011;4673;53.458;9.940;2022-10-16T15:25:35;1.45;;;1.45;;
9270;SDS011;4673;53.458;9.940;2022-10-16T15:28:00;1.55;;;1.55;;
9270;SDS011;4673;53.458;9.940;2022-10-16T15:30:27;1.10;;;1.10;;
9270;SDS011;4673;53.458;9.940;2022-10-16T15:32:53;1.00;;;1.00;;
9270;SDS011;4673;53.458;9.940;2022-10-16T15:35:19;1.45;;;1.45;;
9270;SDS011;4673;53.458;9.940;2022-10-16T15:37:45;1.13;;;1.13;;
9270;SDS011;4673;53.458;9.940;2022-10-16T15:40:12;1.30;;;1.30;;
9270;SDS011;4673;53.458;9.940;2022-10-16T15:42:38;1.00;;;1.00;;
9270;SDS011;4673;53.458;9.940;2022-10-16T15:45:04;1.23;;;1.23;;
9270;SDS011;4673;53.458;9.940;2022-10-16T15:47:31;1.45;;;1.45;;
9270;SDS011;4673;53.458;9.940;2022-10-16T15:49:57;1.23;;;1.23;;
9270;SDS011;4673;53.458;9.940;2022-10-16T15:52:23;1.33;;;1.33;;
9270;SDS011;4673;53.458;9.940;2022-10-16T15:54:48;1.40;;;1.40;;
9270;SDS011;4673;53.458;9.940;2022-10-16T15:57:14;1.35;;;1.35;;
9270;SDS011;4673;53.458;9.940;2022-10-16T15:59:40;3.38;;;3.38;;
9270;SDS011;4673;53.458;9.940;2022-10-16T16:02:05;2.08;;;2.08;;
9270;SDS011;4673;53.458;9.940;2022-10-16T16:04:32;1.90;;;1.90;;
9270;SDS011;4673;53.458;9.940;2022-10-16T16:06:58;2.42;;;2.42;;
9270;SDS011;4673;53.458;9.940;2022-10-16T16:09:24;1.55;;;1.55;;
9270;SDS011;4673;53.458;9.940;2022-10-16T16:11:49;25.92;;;25.73;;
9270;SDS011;4673;53.458;9.940;2022-10-16T16:14:17;29.27;;;29.08;;
9270;SDS011;4673;53.458;9.940;2022-10-16T16:16:43;6.15;;;6.15;;
9270;SDS011;4673;53.458;9.940;2022-10-16T16:19:08;5.15;;;5.15;;
9270;SDS011;4673;53.458;9.940;2022-10-16T16:21:34;7.75;;;7.75;;
9270;SDS011;4673;53.458;9.940;2022-10-16T16:24:00;6.00;;;6.00;;
9270;SDS011;4673;53.458;9.940;2022-10-16T16:26:29;16.17;;;16.07;;
9270;SDS011;4673;53.458;9.940;2022-10-16T16:29:01;8.07;;;8.07;;
9270;SDS011;4673;53.458;9.940;2022-10-16T16:31:27;5.30;;;5.30;;
9270;SDS011;4673;53.458;9.940;2022-10-16T16:33:54;3.77;;;3.77;;
9270;SDS011;4673;53.458;9.940;2022-10-16T16:36:22;3.20;;;3.20;;
9270;SDS011;4673;53.458;9.940;2022-10-16T16:38:48;2.60;;;2.60;;
9270;SDS011;4673;53.458;9.940;2022-10-16T16:41:14;2.93;;;2.93;;
9270;SDS011;4673;53.458;9.940;2022-10-16T16:43:42;2.13;;;2.13;;
9270;SDS011;4673;53.458;9.940;2022-10-16T16:46:08;3.07;;;3.07;;
9270;SDS011;4673;53.458;9.940;2022-10-16T16:48:34;3.70;;;3.70;;
9270;SDS011;4673;53.458;9.940;2022-10-16T16:51:04;4.17;;;4.17;;
9270;SDS011;4673;53.458;9.940;2022-10-16T16:53:34;4.60;;;4.60;;
9270;SDS011;4673;53.458;9.940;2022-10-16T16:56:04;4.97;;;4.97;;
9270;SDS011;4673;53.458;9.940;2022-10-16T16:58:30;4.70;;;4.70;;
9270;SDS011;4673;53.458;9.940;2022-10-16T17:00:57;4.07;;;4.07;;
9270;SDS011;4673;53.458;9.940;2022-10-16T17:03:33;4.10;;;4.10;;
9270;SDS011;4673;53.458;9.940;2022-10-16T17:06:04;2.93;;;2.93;;
9270;SDS011;4673;53.458;9.940;2022-10-16T17:08:33;2.93;;;2.93;;
9270;SDS011;4673;53.458;9.940;2022-10-16T17:11:02;2.53;;;2.53;;
9270;SDS011;4673;53.458;9.940;2022-10-16T17:13:29;2.73;;;2.73;;
9270;SDS011;4673;53.458;9.940;2022-10-16T17:15:59;3.67;;;3.67;;
9270;SDS011;4673;53.458;9.940;2022-10-16T17:18:25;2.63;;;2.63;;